Time;durP1;ratioP1;P1;durP2;ratioP2;P2;SDS_P1;SDS_P2;PMS_P1;PMS_P2;Temp;Humidity;BMP_temperature;BMP_pressure;BME280_temperature;BME280_humidity;BME280_pressure;Samples;Min_cycle;Max_cycle;Signal;HPM_P1;HPM_P2
2021/05/20 00:01:31;;;;;;;1999.90;999.90;;;10.70;99.90;;;;;;5054301;28;20174;-69
2021/05/20 00:03:56;;;;;;;1999.90;999.90;;;10.80;99.90;;;;;;5054146;28;20167;-69
2021/05/20 00:06:22;;;;;;;1999.90;999.90;;;10.70;99.90;;;;;;5053820;28;20563;-69
2021/05/20 00:08:47;;;;;;;1999.90;999.90;;;10.70;99.90;;;;;;5053289;28;20185;-69
2021/05/20 00:11:13;;;;;;;1999.90;999.90;;;10.50;99.90;;;;;;5054002;28;20172;-69
2021/05/20 00:13:39;;;;;;;1999.90;999.90;;;10.50;99.90;;;;;;5054050;28;20177;-69
2021/05/20 00:16:04;;;;;;;1999.90;999.90;;;10.50;99.90;;;;;;5053664;28;20221;-70
2021/05/20 00:18:30;;;;;;;1999.90;999.90;;;10.50;99.90;;;;;;5053898;28;20630;-69
2021/05/20 00:20:56;;;;;;;1999.90;999.90;;;10.40;99.90;;;;;;5053747;28;20232;-69
2021/05/20 00:23:21;;;;;;;1999.90;999.90;;;10.40;99.90;;;;;;5053782;28;20192;-69
2021/05/20 00:25:47;;;;;;;1999.90;999.90;;;10.40;99.90;;;;;;5053579;28;20194;-68
2021/05/20 00:28:12;;;;;;;1999.90;999.90;;;10.50;99.90;;;;;;5053541;28;20194;-69
2021/05/20 00:30:38;;;;;;;1999.90;999.90;;;10.50;99.90;;;;;;5053882;28;20190;-70
2021/05/20 00:33:03;;;;;;;1999.90;999.90;;;10.50;99.90;;;;;;5053618;28;20640;-70
2021/05/20 00:35:29;;;;;;;1999.90;999.90;;;10.50;99.90;;;;;;5053364;28;20175;-70
2021/05/20 00:37:55;;;;;;;1999.90;999.90;;;10.50;99.90;;;;;;5053454;28;20884;-69
2021/05/20 00:40:20;;;;;;;1999.90;999.90;;;10.50;99.90;;;;;;5053336;28;20206;-69
2021/05/20 00:42:46;;;;;;;1999.90;999.90;;;10.50;99.90;;;;;;5053446;28;20253;-69
2021/05/20 00:45:13;;;;;;;1999.90;999.90;;;10.50;99.90;;;;;;5053098;28;20205;-69
2021/05/20 00:47:39;;;;;;;1999.90;999.90;;;10.50;99.90;;;;;;5053363;28;20846;-69
2021/05/20 00:50:07;;;;;;;1999.90;999.90;;;10.50;99.90;;;;;;5053138;28;20455;-70
2021/05/20 00:52:33;;;;;;;1999.90;999.90;;;10.50;99.90;;;;;;5053100;28;20408;-69
2021/05/20 00:54:59;;;;;;;1999.90;999.90;;;10.60;99.90;;;;;;5052915;28;20977;-70
2021/05/20 00:57:26;;;;;;;1999.90;999.90;;;10.40;99.90;;;;;;5053202;28;20419;-69
2021/05/20 00:59:52;;;;;;;1999.90;999.90;;;10.40;99.90;;;;;;5052971;28;20974;-69
2021/05/20 01:02:20;;;;;;;1999.90;999.90;;;10.20;99.90;;;;;;5053040;28;20425;-68
2021/05/20 01:04:46;;;;;;;1999.90;999.90;;;10.10;99.90;;;;;;5052827;28;20537;-69
2021/05/20 01:07:11;;;;;;;1999.90;999.90;;;10.10;99.90;;;;;;5052893;28;20895;-69
2021/05/20 01:09:37;;;;;;;1999.90;999.90;;;10.10;99.90;;;;;;5052855;28;20799;-69
2021/05/20 01:12:07;;;;;;;1999.90;999.90;;;10.10;99.90;;;;;;5052804;28;20177;-69
2021/05/20 01:14:43;;;;;;;1999.90;999.90;;;10.10;99.90;;;;;;5052795;28;20454;-69
2021/05/20 01:17:08;;;;;;;1999.90;999.90;;;10.10;99.90;;;;;;5052759;28;20759;-69
2021/05/20 01:19:36;;;;;;;1999.90;999.90;;;10.20;99.90;;;;;;5052412;28;20463;-69
2021/05/20 01:22:02;;;;;;;1999.90;999.90;;;10.20;99.90;;;;;;5052657;28;20956;-69
2021/05/20 01:24:28;;;;;;;1999.90;999.90;;;10.20;99.90;;;;;;5052647;28;20534;-68
2021/05/20 01:26:54;;;;;;;1999.90;999.90;;;10.30;99.90;;;;;;5052375;28;20439;-69
2021/05/20 01:29:19;;;;;;;1999.90;999.90;;;10.30;99.90;;;;;;5052376;28;20210;-69
2021/05/20 01:31:45;;;;;;;1999.90;999.90;;;10.30;99.90;;;;;;5052529;28;20413;-69
2021/05/20 01:34:11;;;;;;;1999.90;999.90;;;10.40;99.90;;;;;;5052394;28;20174;-69
2021/05/20 01:36:36;;;;;;;1999.90;999.90;;;10.50;99.90;;;;;;5052143;28;20178;-69
2021/05/20 01:39:03;;;;;;;1999.90;999.90;;;10.40;99.90;;;;;;5052264;28;20626;-69
2021/05/20 01:41:29;;;;;;;1999.90;999.90;;;10.40;99.90;;;;;;5052404;28;20170;-70
2021/05/20 01:43:55;;;;;;;1999.90;999.90;;;10.30;99.90;;;;;;5052374;28;20401;-70
2021/05/20 01:46:20;;;;;;;1999.90;999.90;;;10.40;99.90;;;;;;5051976;28;20405;-69
2021/05/20 01:48:48;;;;;;;1999.90;999.90;;;10.30;99.90;;;;;;5052106;28;20553;-70
2021/05/20 01:51:19;;;;;;;1999.90;999.90;;;10.30;99.90;;;;;;5052185;28;20181;-69
2021/05/20 01:53:47;;;;;;;1999.90;999.90;;;10.30;99.90;;;;;;5052164;28;20494;-69
2021/05/20 01:56:17;;;;;;;1999.90;999.90;;;10.40;99.90;;;;;;5051830;28;20966;-69
2021/05/20 01:58:45;;;;;;;1999.90;999.90;;;10.30;99.90;;;;;;5051996;28;20429;-69
2021/05/20 02:01:11;;;;;;;1999.90;999.90;;;10.20;99.90;;;;;;5052029;28;20401;-69
2021/05/20 02:03:37;;;;;;;1999.90;999.90;;;10.20;99.90;;;;;;5051993;28;20399;-69
2021/05/20 02:06:05;;;;;;;1999.90;999.90;;;10.10;99.90;;;;;;5051825;28;20506;-69
2021/05/20 02:08:32;;;;;;;1999.90;999.90;;;10.00;99.90;;;;;;5051908;28;20421;-69
2021/05/20 02:10:57;;;;;;;1999.90;999.90;;;10.00;99.90;;;;;;5051945;28;20413;-69
2021/05/20 02:13:23;;;;;;;1999.90;999.90;;;9.80;99.90;;;;;;5052015;28;20896;-69
2021/05/20 02:15:49;;;;;;;1999.90;999.90;;;9.80;99.90;;;;;;5051558;28;20640;-69
2021/05/20 02:18:15;;;;;;;1999.90;999.90;;;9.70;99.90;;;;;;5051775;28;20291;-70
2021/05/20 02:20:40;;;;;;;1999.90;999.90;;;9.70;99.90;;;;;;5051854;28;20197;-69
2021/05/20 02:23:06;;;;;;;1999.90;999.90;;;9.80;99.90;;;;;;5051758;28;20212;-68
2021/05/20 02:25:32;;;;;;;1999.90;999.90;;;9.70;99.90;;;;;;5051522;28;20176;-69
2021/05/20 02:27:59;;;;;;;1999.90;999.90;;;9.70;99.90;;;;;;5051818;28;20166;-69
2021/05/20 02:30:24;;;;;;;1999.90;999.90;;;9.70;99.90;;;;;;5051511;28;20908;-69
2021/05/20 02:32:50;;;;;;;1999.90;999.90;;;9.70;99.90;;;;;;5054319;28;20469;-69
2021/05/20 02:35:16;;;;;;;1999.90;999.90;;;9.70;99.90;;;;;;5055543;28;20643;-69
2021/05/20 02:37:43;;;;;;;1999.90;999.90;;;9.60;99.90;;;;;;5055964;28;20189;-70
2021/05/20 02:40:11;;;;;;;1999.90;999.90;;;9.70;99.90;;;;;;5055604;28;20221;-69
2021/05/20 02:42:38;;;;;;;1999.90;999.90;;;9.60;99.90;;;;;;5055752;28;20401;-70
2021/05/20 02:45:08;;;;;;;1999.90;999.90;;;9.60;99.90;;;;;;5055372;28;20960;-70
2021/05/20 02:47:35;;;;;;;1999.90;999.90;;;9.60;99.90;;;;;;5055629;28;20435;-70
2021/05/20 02:50:01;;;;;;;1999.90;999.90;;;9.60;99.90;;;;;;5055582;28;20418;-70
2021/05/20 02:52:29;;;;;;;1999.90;999.90;;;9.60;99.90;;;;;;5055550;28;21044;-70
2021/05/20 02:54:55;;;;;;;1999.90;999.90;;;9.60;99.90;;;;;;5055221;28;20841;-70
2021/05/20 02:57:20;;;;;;;1999.90;999.90;;;9.60;99.90;;;;;;5055332;28;20444;-69
2021/05/20 02:59:46;;;;;;;1999.90;999.90;;;9.60;99.90;;;;;;5055229;28;20466;-70
2021/05/20 03:02:11;;;;;;;1999.90;999.90;;;9.60;99.90;;;;;;5055323;28;20555;-70
2021/05/20 03:04:37;;;;;;;1999.90;999.90;;;9.60;99.90;;;;;;5055235;28;20630;-70
2021/05/20 03:07:05;;;;;;;1999.90;999.90;;;9.60;99.90;;;;;;5055041;28;20258;-70
2021/05/20 03:09:31;;;;;;;1999.90;999.90;;;9.60;99.90;;;;;;5055176;28;20232;-69
2021/05/20 03:11:59;;;;;;;1999.90;999.90;;;9.70;99.90;;;;;;5055117;28;20419;-70
2021/05/20 03:14:26;;;;;;;1999.90;999.90;;;9.70;99.90;;;;;;5055048;28;20408;-70
2021/05/20 03:16:52;;;;;;;1999.90;999.90;;;9.80;99.90;;;;;;5054930;28;21149;-69
2021/05/20 03:19:18;;;;;;;1999.90;999.90;;;9.80;99.90;;;;;;5054768;28;20546;-70
2021/05/20 03:21:44;;;;;;;1999.90;999.90;;;9.80;99.90;;;;;;5055027;28;20429;-70
2021/05/20 03:24:10;;;;;;;1999.90;999.90;;;9.80;99.90;;;;;;5054960;28;21040;-69
2021/05/20 03:26:36;;;;;;;1999.90;999.90;;;9.80;99.90;;;;;;5054558;28;20414;-69
2021/05/20 03:29:02;;;;;;;1999.90;999.90;;;9.90;99.90;;;;;;5054644;28;20527;-70
2021/05/20 03:31:27;;;;;;;1999.90;999.90;;;9.90;99.90;;;;;;5055180;28;20172;-69
2021/05/20 03:33:53;;;;;;;1999.90;999.90;;;9.90;99.90;;;;;;5054810;28;20808;-70
2021/05/20 03:36:19;;;;;;;1999.90;999.90;;;9.90;99.90;;;;;;5054412;28;20501;-69
2021/05/20 03:38:45;;;;;;;1999.90;999.90;;;9.90;99.90;;;;;;5054612;28;20482;-70
2021/05/20 03:41:10;;;;;;;1999.90;999.90;;;9.90;99.90;;;;;;5054576;28;20181;-70
2021/05/20 03:43:36;;;;;;;1999.90;999.90;;;9.90;99.90;;;;;;5053352;28;20626;-70
2021/05/20 03:46:03;;;;;;;1999.90;999.90;;;9.80;99.90;;;;;;5054319;28;20886;-70
2021/05/20 03:48:30;;;;;;;1999.90;999.90;;;9.90;99.90;;;;;;5054358;28;20456;-70
2021/05/20 03:50:57;;;;;;;1999.90;999.90;;;9.80;99.90;;;;;;5054498;28;20496;-70
2021/05/20 03:53:29;;;;;;;1999.90;999.90;;;9.80;99.90;;;;;;5054379;28;20425;-70
2021/05/20 03:55:54;;;;;;;1999.90;999.90;;;9.80;99.90;;;;;;5054147;28;20491;-70
2021/05/20 03:58:20;;;;;;;1999.90;999.90;;;9.80;99.90;;;;;;5054270;28;20497;-70
2021/05/20 04:00:46;;;;;;;1999.90;999.90;;;9.60;99.90;;;;;;5054208;28;20196;-69
2021/05/20 04:03:30;;;;;;;1999.90;999.90;;;9.50;99.90;;;;;;5054169;28;20177;-69
2021/05/20 04:05:58;;;;;;;1999.90;999.90;;;9.50;99.90;;;;;;5053904;28;20647;-69
2021/05/20 04:08:24;;;;;;;1999.90;999.90;;;9.50;99.90;;;;;;5053963;28;20410;-68
2021/05/20 04:10:51;;;;;;;1999.90;999.90;;;9.60;99.90;;;;;;5054094;28;20484;-69
2021/05/20 04:13:36;;;;;;;1999.90;999.90;;;9.70;99.90;;;;;;5053978;28;20407;-72
2021/05/20 04:16:04;;;;;;;1999.90;999.90;;;9.80;99.90;;;;;;5053686;28;20492;-69
2021/05/20 04:18:30;;;;;;;1999.90;999.90;;;9.80;99.90;;;;;;5053793;28;20428;-69
2021/05/20 04:20:56;;;;;;;1999.90;999.90;;;9.80;99.90;;;;;;5053829;28;20457;-69
2021/05/20 04:23:22;;;;;;;1999.90;999.90;;;9.80;99.90;;;;;;5053849;28;20186;-69
2021/05/20 04:25:49;;;;;;;1999.90;999.90;;;9.80;99.90;;;;;;5053529;28;20750;-69
2021/05/20 04:28:16;;;;;;;1999.90;999.90;;;9.80;99.90;;;;;;5053534;28;20426;-69
2021/05/20 04:30:43;;;;;;;1999.90;999.90;;;9.90;99.90;;;;;;5053720;28;20427;-69
2021/05/20 04:33:10;;;;;;;1999.90;999.90;;;9.90;99.90;;;;;;5053654;28;20448;-69
2021/05/20 04:35:36;;;;;;;1999.90;999.90;;;10.00;99.90;;;;;;5053279;28;20405;-68
2021/05/20 04:38:04;;;;;;;1999.90;999.90;;;10.10;99.90;;;;;;5053601;28;20595;-68
2021/05/20 04:40:32;;;;;;;1999.90;999.90;;;10.20;99.90;;;;;;5053359;28;20461;-70
2021/05/20 04:42:57;;;;;;;1999.90;999.90;;;10.20;99.90;;;;;;5053496;28;20871;-70
2021/05/20 04:45:23;;;;;;;1999.90;999.90;;;10.30;99.90;;;;;;5051821;28;20422;-69
2021/05/20 04:47:49;;;;;;;1999.90;999.90;;;10.30;99.90;;;;;;5053332;28;20177;-69
2021/05/20 04:50:16;;;;;;;1999.90;999.90;;;10.30;99.90;;;;;;5053362;28;20271;-70
2021/05/20 04:52:43;;;;;;;1999.90;999.90;;;10.30;99.90;;;;;;5053318;28;20181;-69
2021/05/20 04:55:09;;;;;;;1999.90;999.90;;;10.30;99.90;;;;;;5052534;28;20512;-69
2021/05/20 04:57:35;;;;;;;1999.90;999.90;;;10.40;99.90;;;;;;5053215;28;20827;-69
2021/05/20 05:00:03;;;;;;;1999.90;999.90;;;10.40;99.90;;;;;;5053103;28;20453;-69
2021/05/20 05:02:28;;;;;;;1999.90;999.90;;;10.40;99.90;;;;;;5052930;28;20424;-69
2021/05/20 05:04:54;;;;;;;1999.90;999.90;;;10.40;99.90;;;;;;5052809;28;20405;-69
2021/05/20 05:07:19;;;;;;;1999.90;999.90;;;10.40;99.90;;;;;;5053024;28;20217;-69
2021/05/20 05:09:45;;;;;;;1999.90;999.90;;;10.50;99.90;;;;;;5052928;28;20200;-69
2021/05/20 05:12:11;;;;;;;1999.90;999.90;;;10.50;99.90;;;;;;5052934;28;20637;-70
2021/05/20 05:14:36;;;;;;;1999.90;999.90;;;10.50;99.90;;;;;;5052798;28;20179;-70
2021/05/20 05:17:02;;;;;;;1999.90;999.90;;;10.50;99.90;;;;;;5053243;28;20190;-70
2021/05/20 05:19:27;;;;;;;1999.90;999.90;;;10.60;99.90;;;;;;5053241;28;20573;-70
2021/05/20 05:21:53;;;;;;;1999.90;999.90;;;10.60;99.90;;;;;;5053311;28;20197;-70
2021/05/20 05:24:19;;;;;;;1999.90;999.90;;;10.70;99.90;;;;;;5053325;28;20171;-69
2021/05/20 05:26:44;;;;;;;1999.90;999.90;;;10.70;99.90;;;;;;5052988;28;20233;-70
2021/05/20 05:29:10;;;;;;;1999.90;999.90;;;10.80;99.90;;;;;;5052965;28;20599;-70
2021/05/20 05:31:36;;;;;;;1999.90;999.90;;;10.90;99.90;;;;;;5052418;28;20663;-70
2021/05/20 05:34:03;;;;;;;1999.90;999.90;;;10.90;99.90;;;;;;5052676;28;20657;-69
2021/05/20 05:36:29;;;;;;;1999.90;999.90;;;11.00;99.90;;;;;;5052184;28;20780;-70
2021/05/20 05:38:55;;;;;;;1999.90;999.90;;;11.10;99.90;;;;;;5052261;28;20802;-70
2021/05/20 05:41:21;;;;;;;1999.90;999.90;;;11.10;99.90;;;;;;5052370;28;20417;-70
2021/05/20 05:43:46;;;;;;;1999.90;999.90;;;11.20;99.90;;;;;;5052233;28;20408;-70
2021/05/20 05:46:12;;;;;;;1999.90;999.90;;;11.30;99.90;;;;;;5052010;28;20178;-70
2021/05/20 05:48:38;;;;;;;1999.90;999.90;;;11.30;99.90;;;;;;5052150;28;20188;-69
2021/05/20 05:51:07;;;;;;;1999.90;999.90;;;11.20;99.90;;;;;;5052374;28;20444;-69
2021/05/20 05:53:33;;;;;;;1999.90;999.90;;;11.20;99.90;;;;;;5052112;28;20183;-70
2021/05/20 05:55:59;;;;;;;1999.90;999.90;;;11.10;99.90;;;;;;5051921;28;20505;-69
2021/05/20 05:58:25;;;;;;;1999.90;999.90;;;11.10;99.90;;;;;;5050779;28;20229;-70
2021/05/20 06:00:51;;;;;;;1999.90;999.90;;;11.10;99.90;;;;;;5051929;28;20950;-70
2021/05/20 06:03:16;;;;;;;1999.90;999.90;;;11.10;99.90;;;;;;5052286;28;20175;-69
2021/05/20 06:05:42;;;;;;;1999.90;999.90;;;11.20;99.90;;;;;;5051536;28;20646;-69
2021/05/20 06:08:08;;;;;;;1999.90;999.90;;;11.20;99.90;;;;;;5051475;28;20255;-70
2021/05/20 06:10:34;;;;;;;1999.90;999.90;;;11.30;99.90;;;;;;5051962;28;20175;-70
2021/05/20 06:13:00;;;;;;;1999.90;999.90;;;11.30;99.90;;;;;;5051955;28;20199;-70
2021/05/20 06:15:26;;;;;;;1999.90;999.90;;;11.10;99.90;;;;;;5051531;28;20440;-69
2021/05/20 06:17:52;;;;;;;1999.90;999.90;;;11.20;99.90;;;;;;5051826;28;20490;-70
2021/05/20 06:20:18;;;;;;;1999.90;999.90;;;11.20;99.90;;;;;;5051740;28;20634;-69
2021/05/20 06:22:43;;;;;;;1999.90;999.90;;;11.20;99.90;;;;;;5050502;28;20464;-70
2021/05/20 06:25:09;;;;;;;1999.90;999.90;;;11.20;99.90;;;;;;5051540;28;20212;-69
2021/05/20 06:27:35;;;;;;;1999.90;999.90;;;11.20;99.90;;;;;;5051765;28;20171;-70
2021/05/20 06:30:01;;;;;;;1999.90;999.90;;;11.30;99.90;;;;;;5051473;28;20606;-69
2021/05/20 06:32:28;;;;;;;1999.90;999.90;;;11.40;99.90;;;;;;5051724;28;20202;-70
2021/05/20 06:34:53;;;;;;;1999.90;999.90;;;11.50;99.90;;;;;;5051465;28;20199;-69
2021/05/20 06:37:19;;;;;;;1999.90;999.90;;;11.60;99.90;;;;;;5051625;28;20491;-69
2021/05/20 06:39:45;;;;;;;1999.90;999.90;;;11.70;99.90;;;;;;5051463;28;20278;-69
2021/05/20 06:42:11;;;;;;;1999.90;999.90;;;11.70;99.90;;;;;;5051677;28;20530;-69
2021/05/20 06:44:40;;;;;;;1999.90;999.90;;;11.60;99.90;;;;;;5051542;28;20565;-69
2021/05/20 06:47:06;;;;;;;1999.90;999.90;;;11.50;99.90;;;;;;5051488;28;20448;-69
2021/05/20 06:49:31;;;;;;;1999.90;999.90;;;11.50;99.90;;;;;;5051463;28;20521;-69
2021/05/20 06:51:57;;;;;;;1999.90;999.90;;;11.60;99.90;;;;;;5051626;28;20538;-68
2021/05/20 06:54:24;;;;;;;1999.90;999.90;;;11.80;99.90;;;;;;5051583;28;20179;-68
2021/05/20 06:56:54;;;;;;;1999.90;999.90;;;11.90;99.90;;;;;;5051223;28;21347;-70
2021/05/20 07:02:05;;;;;;;1999.90;999.90;;;12.20;99.90;;;;;;5051567;28;20493;-68
2021/05/20 07:04:30;;;;;;;1999.90;999.90;;;12.50;99.90;;;;;;5051372;28;20480;-70
2021/05/20 07:07:01;;;;;;;1999.90;999.90;;;12.50;99.90;;;;;;5051157;28;20406;-69
2021/05/20 07:09:38;;;;;;;1999.90;999.90;;;12.60;99.90;;;;;;5051379;28;20762;-69
2021/05/20 07:12:04;;;;;;;1999.90;999.90;;;12.80;99.90;;;;;;5051429;28;20405;-68
2021/05/20 07:14:30;;;;;;;1999.90;999.90;;;13.00;99.90;;;;;;5051285;28;20937;-69
2021/05/20 07:16:56;;;;;;;1999.90;999.90;;;13.30;99.90;;;;;;5051052;28;20425;-70
2021/05/20 07:19:22;;;;;;;1999.90;999.90;;;13.30;99.90;;;;;;5054420;28;20203;-70
2021/05/20 07:21:49;;;;;;;1999.90;999.90;;;13.30;99.90;;;;;;5054907;28;20172;-70
2021/05/20 07:24:15;;;;;;;1999.90;999.90;;;13.20;99.90;;;;;;5054996;28;20774;-70
2021/05/20 07:26:41;;;;;;;1999.90;999.90;;;13.40;99.90;;;;;;5054621;28;20496;-70
2021/05/20 07:29:07;;;;;;;1999.90;999.90;;;13.60;99.90;;;;;;5054696;28;20470;-70
2021/05/20 07:31:33;;;;;;;1999.90;999.90;;;13.70;99.90;;;;;;5054873;28;20403;-70
2021/05/20 07:33:59;;;;;;;1999.90;999.90;;;13.80;99.90;;;;;;5054818;28;20207;-70
2021/05/20 07:36:25;;;;;;;1999.90;999.90;;;14.00;99.90;;;;;;5054442;28;20583;-69
2021/05/20 07:38:51;;;;;;;1999.90;999.90;;;14.10;99.90;;;;;;5054660;28;20567;-69
2021/05/20 07:41:17;;;;;;;1999.90;999.90;;;14.10;99.90;;;;;;5054585;28;20208;-69
2021/05/20 07:43:43;;;;;;;1999.90;999.90;;;14.20;99.90;;;;;;5054695;28;20438;-69
2021/05/20 07:46:10;;;;;;;1999.90;999.90;;;14.30;99.90;;;;;;5054438;28;20413;-70
2021/05/20 07:48:36;;;;;;;1999.90;999.90;;;14.20;99.90;;;;;;5054496;28;20908;-69
2021/05/20 07:51:03;;;;;;;1999.90;999.90;;;13.90;99.90;;;;;;5054434;28;20403;-70
2021/05/20 07:53:30;;;;;;;1999.90;999.90;;;13.90;99.90;;;;;;5054462;28;20468;-69
2021/05/20 07:55:56;;;;;;;1999.90;999.90;;;13.70;99.90;;;;;;5054217;28;20520;-69
2021/05/20 07:58:21;;;;;;;1999.90;999.90;;;13.70;99.90;;;;;;5054425;28;20556;-69
2021/05/20 08:00:47;;;;;;;1999.90;999.90;;;13.80;99.90;;;;;;5054411;28;20947;-68
2021/05/20 08:05:51;;;;;;;1999.90;999.90;;;14.20;99.90;;;;;;5053858;28;20260;-69
2021/05/20 08:13:14;;;;;;;1999.90;999.90;;;15.00;99.90;;;;;;5054080;28;20415;-69
2021/05/20 08:15:40;;;;;;;1999.90;999.90;;;15.10;99.90;;;;;;5053698;28;20786;-69
2021/05/20 08:18:05;;;;;;;1999.90;999.90;;;15.10;99.90;;;;;;5053939;28;20488;-69
2021/05/20 08:20:31;;;;;;;1999.90;999.90;;;15.20;99.90;;;;;;5053545;28;20223;-68
2021/05/20 08:22:57;;;;;;;1999.90;999.90;;;15.20;99.90;;;;;;5053943;28;20229;-69
2021/05/20 08:25:24;;;;;;;1999.90;999.90;;;15.30;99.90;;;;;;5053724;28;20414;-70
2021/05/20 08:27:49;;;;;;;1999.90;999.90;;;15.40;99.90;;;;;;5054009;28;20211;-70
2021/05/20 08:30:17;;;;;;;1999.90;999.90;;;15.60;99.90;;;;;;5053225;28;20477;-69
2021/05/20 08:32:45;;;;;;;1999.90;999.90;;;15.70;99.90;;;;;;5054222;28;20196;-70
2021/05/20 08:35:11;;;;;;;1999.90;999.90;;;15.40;99.90;;;;;;5053769;28;20406;-70
2021/05/20 08:37:38;;;;;;;1999.90;999.90;;;15.50;99.90;;;;;;5053727;28;20445;-70
2021/05/20 08:40:09;;;;;;;1999.90;999.90;;;15.30;99.90;;;;;;5053514;28;20980;-70
2021/05/20 08:42:35;;;;;;;1999.90;999.90;;;15.40;99.90;;;;;;5053246;28;20443;-70
2021/05/20 08:45:28;;;;;;;1999.90;999.90;;;15.80;99.90;;;;;;5052613;28;21205;-70
2021/05/20 08:47:55;;;;;;;1999.90;999.90;;;16.20;99.90;;;;;;5044787;28;20210;-70
2021/05/20 08:50:24;;;;;;;1999.90;999.90;;;16.30;99.90;;;;;;5050288;28;20983;-70
2021/05/20 08:52:50;;;;;;;1999.90;999.90;;;16.30;99.90;;;;;;5050846;28;20412;-70
2021/05/20 08:55:22;;;;;;;1999.90;999.90;;;16.30;99.90;;;;;;5050402;28;20481;-70
2021/05/20 08:57:48;;;;;;;1999.90;999.90;;;16.30;99.90;;;;;;5051652;28;20923;-70
2021/05/20 09:00:19;;;;;;;1999.90;999.90;;;16.50;99.90;;;;;;5051231;28;20503;-70
2021/05/20 09:02:45;;;;;;;1999.90;999.90;;;16.50;99.90;;;;;;5051157;28;20489;-70
2021/05/20 09:05:16;;;;;;;1999.90;999.90;;;16.20;99.90;;;;;;5051253;28;20503;-70
2021/05/20 09:07:43;;;;;;;1999.90;999.90;;;16.10;99.90;;;;;;5051344;28;20460;-70
2021/05/20 09:10:09;;;;;;;1999.90;999.90;;;15.90;99.90;;;;;;5050636;28;21142;-70
2021/05/20 09:12:35;;;;;;;1999.90;999.90;;;15.90;99.90;;;;;;5051330;28;20414;-70
2021/05/20 09:15:01;;;;;;;1999.90;999.90;;;16.00;99.90;;;;;;5051065;28;20413;-70
2021/05/20 09:17:26;;;;;;;1999.90;999.90;;;16.20;99.90;;;;;;5056790;28;20578;-70
2021/05/20 09:20:10;;;;;;;1999.90;999.90;;;16.40;99.90;;;;;;5070541;28;20211;-70
2021/05/20 09:22:37;;;;;;;1999.90;999.90;;;16.50;99.90;;;;;;5071242;28;20173;-70
2021/05/20 09:25:05;;;;;;;1999.90;999.90;;;16.60;99.90;;;;;;5070081;28;20459;-71
2021/05/20 09:27:36;;;;;;;1999.90;999.90;;;16.80;99.90;;;;;;5071105;28;20405;-70
2021/05/20 09:30:06;;;;;;;1999.90;999.90;;;16.50;99.90;;;;;;5069238;28;20937;-71
2021/05/20 09:32:36;;;;;;;1999.90;999.90;;;16.70;99.90;;;;;;5070427;28;20787;-70
2021/05/20 09:35:03;;;;;;;1999.90;999.90;;;16.90;99.90;;;;;;5070165;28;20798;-70
2021/05/20 09:37:29;;;;;;;1999.90;999.90;;;17.00;99.90;;;;;;5070863;28;20933;-70
2021/05/20 09:40:01;;;;;;;1999.90;999.90;;;16.80;99.90;;;;;;5069735;28;20461;-70
2021/05/20 09:42:31;;;;;;;1999.90;999.90;;;16.70;99.90;;;;;;5070742;28;20183;-70
2021/05/20 09:45:11;;;;;;;1999.90;999.90;;;16.50;99.90;;;;;;5070769;28;20987;-70
2021/05/20 09:47:37;;;;;;;1999.90;999.90;;;16.30;99.90;;;;;;5070204;28;20409;-70
2021/05/20 09:50:11;;;;;;;1999.90;999.90;;;16.30;99.90;;;;;;5068957;28;20464;-70
2021/05/20 09:52:37;;;;;;;1999.90;999.90;;;16.20;99.90;;;;;;5062524;28;20406;-70
2021/05/20 09:55:19;;;;;;;1999.90;999.90;;;16.40;99.90;;;;;;5069902;28;20472;-70
2021/05/20 09:57:45;;;;;;;1999.90;999.90;;;16.80;99.90;;;;;;5070777;28;20169;-70
2021/05/20 10:00:12;;;;;;;1999.90;999.90;;;17.20;99.90;;;;;;5070346;28;20447;-70
2021/05/20 10:02:39;;;;;;;1999.90;999.90;;;17.60;99.90;;;;;;5065382;28;20203;-68
2021/05/20 10:05:23;;;;;;;1999.90;999.90;;;17.70;99.90;;;;;;5068994;28;20405;-70
2021/05/20 10:07:49;;;;;;;1999.90;999.90;;;17.90;99.90;;;;;;5070544;28;20880;-70
2021/05/20 10:10:16;;;;;;;1999.90;999.90;;;17.80;99.90;;;;;;5069983;28;20872;-69
2021/05/20 10:12:45;;;;;;;1999.90;999.90;;;18.10;99.90;;;;;;5070018;28;20629;-69
2021/05/20 10:15:17;;;;;;;1999.90;999.90;;;18.20;99.90;;;;;;5069771;28;20419;-69
2021/05/20 10:17:43;;;;;;;1999.90;999.90;;;18.20;99.90;;;;;;5070063;28;20417;-70
2021/05/20 10:20:11;;;;;;;1999.90;999.90;;;18.10;99.90;;;;;;5070427;28;20509;-70
2021/05/20 10:22:37;;;;;;;1999.90;999.90;;;18.40;99.90;;;;;;5070394;28;20497;-69
2021/05/20 10:25:05;;;;;;;1999.90;999.90;;;18.40;99.90;;;;;;5069512;28;20392;-70
2021/05/20 10:27:31;;;;;;;1999.90;999.90;;;18.30;99.90;;;;;;5070444;28;20420;-68
2021/05/20 10:29:59;;;;;;;1999.90;999.90;;;18.30;99.90;;;;;;5070867;28;20494;-68
2021/05/20 10:32:26;;;;;;;1999.90;999.90;;;18.40;99.90;;;;;;5070032;28;20209;-71
2021/05/20 10:35:11;;;;;;;1999.90;999.90;;;18.40;99.90;;;;;;5070433;28;20469;-71
2021/05/20 10:37:41;;;;;;;1999.90;999.90;;;18.30;99.90;;;;;;5071188;28;20459;-70
2021/05/20 10:40:27;;;;;;;1999.90;999.90;;;18.40;99.90;;;;;;5070762;28;20458;-72
2021/05/20 10:43:03;;;;;;;1999.90;999.90;;;18.70;99.90;;;;;;5070964;28;20419;-70
2021/05/20 10:45:29;;;;;;;1999.90;999.90;;;18.90;99.90;;;;;;5069549;28;20420;-69
2021/05/20 10:48:04;;;;;;;1999.90;999.90;;;18.70;99.90;;;;;;5069943;28;20416;-69
2021/05/20 10:50:51;;;;;;;1999.90;999.90;;;18.70;99.90;;;;;;5070195;28;20198;-68
2021/05/20 10:53:41;;;;;;;1999.90;999.90;;;18.80;99.90;;;;;;5070891;28;20442;-69
2021/05/20 10:56:08;;;;;;;1999.90;999.90;;;18.90;99.90;;;;;;5073404;28;20408;-68
2021/05/20 10:58:36;;;;;;;1999.90;999.90;;;18.90;99.90;;;;;;5073839;28;20417;-67
2021/05/20 11:01:05;;;;;;;1999.90;999.90;;;19.10;99.90;;;;;;5073564;28;20517;-67
2021/05/20 11:03:49;;;;;;;1999.90;999.90;;;19.20;99.90;;;;;;5073796;28;20475;-69
2021/05/20 11:06:19;;;;;;;1999.90;999.90;;;19.10;99.90;;;;;;5073166;28;20444;-69
2021/05/20 11:08:44;;;;;;;1999.90;999.90;;;19.50;99.90;;;;;;5073113;28;20531;-69
2021/05/20 11:11:42;;;;;;;1999.90;999.90;;;19.70;99.90;;;;;;5071681;28;20506;-69
2021/05/20 11:14:14;;;;;;;1999.90;999.90;;;19.60;99.90;;;;;;5069388;28;20245;-68
2021/05/20 11:16:44;;;;;;;1999.90;999.90;;;19.60;99.90;;;;;;5072492;28;20425;-68
2021/05/20 11:19:22;;;;;;;1999.90;999.90;;;19.60;99.90;;;;;;5070317;28;21015;-68
2021/05/20 11:22:08;;;;;;;1999.90;999.90;;;19.50;99.90;;;;;;5072561;28;20495;-72
2021/05/20 11:24:35;;;;;;;1999.90;999.90;;;19.10;99.90;;;;;;5072637;28;20415;-72
2021/05/20 11:27:19;;;;;;;1999.90;999.90;;;18.90;99.90;;;;;;5069488;28;20421;-69
2021/05/20 11:29:48;;;;;;;1999.90;999.90;;;19.00;99.90;;;;;;5069430;28;20551;-68
2021/05/20 11:37:39;;;;;;;1999.90;999.90;;;18.80;99.90;;;;;;5064135;28;20410;-69
2021/05/20 11:40:28;;;;;;;1999.90;999.90;;;19.10;99.90;;;;;;5072871;28;20456;-69
2021/05/20 11:42:55;;;;;;;1999.90;999.90;;;19.60;99.90;;;;;;5061411;28;20896;-68
2021/05/20 11:45:29;;;;;;;1999.90;999.90;;;19.60;99.90;;;;;;5052203;28;20449;-68
2021/05/20 11:47:56;;;;;;;1999.90;999.90;;;19.70;99.90;;;;;;5053073;28;20487;-68
2021/05/20 11:50:25;;;;;;;1999.90;999.90;;;19.90;99.90;;;;;;5052945;28;20438;-68
2021/05/20 11:52:52;;;;;;;1999.90;999.90;;;20.00;99.90;;;;;;5060109;28;20416;-68
2021/05/20 11:55:22;;;;;;;1999.90;999.90;;;19.90;99.90;;;;;;5067638;28;20427;-68
2021/05/20 11:57:48;;;;;;;1999.90;999.90;;;19.90;99.90;;;;;;5072378;28;20519;-68
2021/05/20 12:00:15;;;;;;;1999.90;999.90;;;20.40;99.90;;;;;;5065215;28;20537;-68
2021/05/20 12:02:41;;;;;;;1999.90;999.90;;;21.20;99.90;;;;;;5052682;28;20405;-68
2021/05/20 12:05:11;;;;;;;1999.90;999.90;;;21.80;99.90;;;;;;5051024;28;20408;-68
2021/05/20 12:07:39;;;;;;;1999.90;999.90;;;22.20;98.50;;;;;;5052294;28;20744;-68
2021/05/20 12:10:18;;;;;;;1999.90;999.90;;;22.40;92.60;;;;;;5052562;28;20490;-68
2021/05/20 12:12:55;;;;;;;1999.90;999.90;;;22.90;91.10;;;;;;5052322;28;20511;-67
2021/05/20 12:15:22;;;;;;;1999.90;999.90;;;23.40;93.20;;;;;;5051306;28;20376;-69
2021/05/20 12:17:50;;;;;;;1999.90;999.90;;;23.00;82.10;;;;;;5052392;28;20793;-68
2021/05/20 12:20:17;;;;;;;1999.90;999.90;;;22.40;84.40;;;;;;5052539;28;20454;-68